Aérodrome :
LOGIN :

S'inscrire | Disclaimer

   EN    FR    IT 

 










Légende :    VFR   VFR Marginal   IFR   IFR Intensif   IFR Très Intensif
Visi : 
Plafond : 
>= 8 km
>= 3000ft
5 à 8 km
1000 à 3000 ft
1500m à 5 km
500 à 1000 ft
800 à 1500m
200 à 500 ft
< 800m
< 200 ft
Symboles :   Orages  Brouillard  Fortes neiges  Fortes précipitations  Vent > 20 kt
SIGMETs :   Divers  Orages  Givrage  Turbulence  Onde Orograph.  Cendres Volcan.







- Altitude de l'aérodrome : 247 ft
- Code IATA : BLL


EKBI - Billund

DERNIER METAR :
  • 190320Z AUTO 19004KT 9999NDV OVC098/// 13/12 Q1007

METARs EXPIRÉS :
  • 190250Z AUTO 19003KT 9999NDV SCT047/// BKN098/// BKN120/// BKN140/// 13/12 Q1007
  • 190220Z AUTO 22003KT 9999NDV BKN046/// BKN120/// 13/12 Q1007
  • 190150Z AUTO 20003KT 9999NDV BKN100/// 13/12 Q1007
  • 190120Z AUTO 21005KT 9999NDV BKN100/// 13/12 Q1007
  • 190050Z AUTO 19004KT 9999NDV SCT098/// BKN160/// 13/13 Q1007

TAF TAF EKBI
Valide du 19 à 00h jusqu'au 20 à 00h UTC


182314Z 1900/1924 21006KT 9999 BKN030
TEMPO 1902/1918 4000 SHRA TSRA SCT020CB
BECMG 1907/1910 21012KT
TEMPO 1918/1924 2500 SHRA TSRA BKN008 BKN025CB
Pas de NOTAMs connus pour ce terrain.
1 SIGMET publié pour la FIR Kobenhavn (EKDK) :
 
Orages fréquents
EKDK SIGMET 2 VALID 190300/190500 EKMI
EKDK COPENHAGEN FIR FRQ TS OBS AT 0300Z WI N5500 E00804 - N5604 E00643 - N5633 E00752 - N5449 E00915 - N5500 E00804 TOP FL290 MOV ENE 25KT NC=



MET'MAP, la Météo Aéronautique d'un coup d'oeil ! - Copyright ORBIFLY Décembre 2007 - Disclaimer

ORBIFLY MET'MAP TEAM :

Programmation & Développement : Alexandra Zaïnal
Conception & Développement : Baudouin d'Aumeries
Co-Programmation & Développement : Marc-Olivier Méhu
Soutien technique & logistique : Manuel Goepfert

Contact : metmap@orbifly.com




SOURCES & CREDITS :

   NOAA